sensor_id;sensor_type;location;lat;lon;timestamp;pressure;altitude;pressure_sealevel;temperature;humidity
51099;BME280;37146;48.210;16.234;2022-07-05T00:01:38;98842.22;;;18.20;100.00
51099;BME280;37146;48.210;16.234;2022-07-05T00:04:03;98834.59;;;18.25;100.00
51099;BME280;37146;48.210;16.234;2022-07-05T00:06:28;98837.16;;;18.27;100.00
51099;BME280;37146;48.210;16.234;2022-07-05T00:08:54;98825.16;;;18.19;100.00
51099;BME280;37146;48.210;16.234;2022-07-05T00:11:19;98819.88;;;18.18;100.00
51099;BME280;37146;48.210;16.234;2022-07-05T00:13:44;98814.25;;;18.10;100.00
51099;BME280;37146;48.210;16.234;2022-07-05T00:16:10;98813.84;;;18.14;100.00
51099;BME280;37146;48.210;16.234;2022-07-05T00:18:35;98821.97;;;18.14;100.00
51099;BME280;37146;48.210;16.234;2022-07-05T00:21:00;98815.13;;;18.10;100.00
51099;BME280;37146;48.210;16.234;2022-07-05T00:23:25;98810.38;;;18.02;100.00
51099;BME280;37146;48.210;16.234;2022-07-05T00:25:51;98797.34;;;17.96;100.00
51099;BME280;37146;48.210;16.234;2022-07-05T00:28:17;98799.19;;;17.96;100.00
51099;BME280;37146;48.210;16.234;2022-07-05T00:30:42;98795.63;;;17.95;100.00
51099;BME280;37146;48.210;16.234;2022-07-05T00:33:08;98794.97;;;18.03;100.00
51099;BME280;37146;48.210;16.234;2022-07-05T00:35:33;98796.72;;;17.92;100.00
51099;BME280;37146;48.210;16.234;2022-07-05T00:37:58;98795.78;;;17.82;100.00
51099;BME280;37146;48.210;16.234;2022-07-05T00:40:23;98794.06;;;17.81;100.00
51099;BME280;37146;48.210;16.234;2022-07-05T00:42:49;98786.69;;;17.83;100.00
51099;BME280;37146;48.210;16.234;2022-07-05T00:45:14;98795.63;;;17.95;100.00
51099;BME280;37146;48.210;16.234;2022-07-05T00:47:39;98802.13;;;17.92;100.00
51099;BME280;37146;48.210;16.234;2022-07-05T00:50:05;98799.56;;;17.91;100.00
51099;BME280;37146;48.210;16.234;2022-07-05T00:52:30;98812.97;;;17.92;100.00
51099;BME280;37146;48.210;16.234;2022-07-05T00:54:56;98817.19;;;17.85;100.00
51099;BME280;37146;48.210;16.234;2022-07-05T00:57:21;98820.78;;;17.86;100.00
51099;BME280;37146;48.210;16.234;2022-07-05T00:59:47;98827.75;;;17.88;100.00
51099;BME280;37146;48.210;16.234;2022-07-05T01:02:13;98829.00;;;17.84;100.00
51099;BME280;37146;48.210;16.234;2022-07-05T01:04:38;98835.78;;;17.78;100.00
51099;BME280;37146;48.210;16.234;2022-07-05T01:07:03;98820.28;;;17.81;100.00
51099;BME280;37146;48.210;16.234;2022-07-05T01:09:29;98838.44;;;17.69;100.00
51099;BME280;37146;48.210;16.234;2022-07-05T01:11:54;98835.38;;;17.62;100.00
51099;BME280;37146;48.210;16.234;2022-07-05T01:14:21;98843.22;;;17.65;100.00
51099;BME280;37146;48.210;16.234;2022-07-05T01:16:47;98839.16;;;17.59;100.00
51099;BME280;37146;48.210;16.234;2022-07-05T01:19:12;98826.00;;;17.66;100.00
51099;BME280;37146;48.210;16.234;2022-07-05T01:21:42;98824.06;;;17.57;100.00
51099;BME280;37146;48.210;16.234;2022-07-05T01:24:08;98813.25;;;17.57;100.00
51099;BME280;37146;48.210;16.234;2022-07-05T01:26:33;98816.94;;;17.56;100.00
51099;BME280;37146;48.210;16.234;2022-07-05T01:28:59;98817.47;;;17.50;100.00
51099;BME280;37146;48.210;16.234;2022-07-05T01:31:24;98814.78;;;17.50;100.00
51099;BME280;37146;48.210;16.234;2022-07-05T01:33:49;98807.84;;;17.57;100.00
51099;BME280;37146;48.210;16.234;2022-07-05T01:36:14;98807.00;;;17.56;100.00
51099;BME280;37146;48.210;16.234;2022-07-05T01:38:40;98813.75;;;17.62;100.00
51099;BME280;37146;48.210;16.234;2022-07-05T01:41:06;98806.47;;;17.62;100.00
51099;BME280;37146;48.210;16.234;2022-07-05T01:43:34;98814.00;;;17.59;100.00
51099;BME280;37146;48.210;16.234;2022-07-05T01:45:59;98805.28;;;17.55;100.00
51099;BME280;37146;48.210;16.234;2022-07-05T01:48:26;98802.97;;;17.51;100.00
51099;BME280;37146;48.210;16.234;2022-07-05T01:50:54;98797.81;;;17.48;100.00
51099;BME280;37146;48.210;16.234;2022-07-05T01:53:29;98792.66;;;17.44;100.00
51099;BME280;37146;48.210;16.234;2022-07-05T01:55:58;98797.81;;;17.48;100.00
51099;BME280;37146;48.210;16.234;2022-07-05T01:58:26;98798.06;;;17.44;100.00
51099;BME280;37146;48.210;16.234;2022-07-05T02:00:52;98796.00;;;17.37;100.00
51099;BME280;37146;48.210;16.234;2022-07-05T02:03:18;98798.84;;;17.35;100.00
51099;BME280;37146;48.210;16.234;2022-07-05T02:05:43;98811.38;;;17.36;100.00
51099;BME280;37146;48.210;16.234;2022-07-05T02:08:09;98811.72;;;17.43;100.00
51099;BME280;37146;48.210;16.234;2022-07-05T02:10:35;98821.75;;;17.52;100.00
51099;BME280;37146;48.210;16.234;2022-07-05T02:13:01;98820.38;;;17.58;100.00
51099;BME280;37146;48.210;16.234;2022-07-05T02:15:26;98830.06;;;17.60;100.00
51099;BME280;37146;48.210;16.234;2022-07-05T02:17:51;98835.47;;;17.60;100.00
51099;BME280;37146;48.210;16.234;2022-07-05T02:20:17;98831.19;;;17.58;100.00
51099;BME280;37146;48.210;16.234;2022-07-05T02:22:42;98836.84;;;17.55;100.00
51099;BME280;37146;48.210;16.234;2022-07-05T02:25:07;98837.97;;;17.52;100.00
51099;BME280;37146;48.210;16.234;2022-07-05T02:27:33;98837.97;;;17.52;100.00
51099;BME280;37146;48.210;16.234;2022-07-05T02:29:58;98845.94;;;17.54;100.00
51099;BME280;37146;48.210;16.234;2022-07-05T02:32:23;98844.13;;;17.54;100.00
51099;BME280;37146;48.210;16.234;2022-07-05T02:34:48;98842.41;;;17.53;100.00
51099;BME280;37146;48.210;16.234;2022-07-05T02:37:14;98837.25;;;17.50;100.00
51099;BME280;37146;48.210;16.234;2022-07-05T02:39:39;98839.50;;;17.45;100.00
51099;BME280;37146;48.210;16.234;2022-07-05T02:42:04;98834.19;;;17.43;100.00
51099;BME280;37146;48.210;16.234;2022-07-05T02:44:30;98833.94;;;17.46;100.00
51099;BME280;37146;48.210;16.234;2022-07-05T02:46:55;98840.34;;;17.45;100.00
51099;BME280;37146;48.210;16.234;2022-07-05T02:49:20;98840.84;;;17.39;100.00
51099;BME280;37146;48.210;16.234;2022-07-05T02:51:45;98844.53;;;17.38;100.00
51099;BME280;37146;48.210;16.234;2022-07-05T02:54:11;98845.00;;;17.43;100.00
51099;BME280;37146;48.210;16.234;2022-07-05T02:56:36;98849.94;;;17.38;100.00
51099;BME280;37146;48.210;16.234;2022-07-05T02:59:01;98847.25;;;17.38;100.00
51099;BME280;37146;48.210;16.234;2022-07-05T03:01:26;98847.00;;;17.41;100.00
51099;BME280;37146;48.210;16.234;2022-07-05T03:03:52;98847.63;;;17.34;100.00
51099;BME280;37146;48.210;16.234;2022-07-05T03:06:17;98847.97;;;17.40;100.00
51099;BME280;37146;48.210;16.234;2022-07-05T03:08:42;98847.09;;;17.40;100.00
51099;BME280;37146;48.210;16.234;2022-07-05T03:11:07;98844.25;;;17.53;100.00
51099;BME280;37146;48.210;16.234;2022-07-05T03:13:33;98843.22;;;17.65;100.00
51099;BME280;37146;48.210;16.234;2022-07-05T03:15:58;98839.47;;;17.77;100.00
51099;BME280;37146;48.210;16.234;2022-07-05T03:18:23;98843.13;;;17.88;100.00
51099;BME280;37146;48.210;16.234;2022-07-05T03:20:49;98844.31;;;17.95;100.00
51099;BME280;37146;48.210;16.234;2022-07-05T03:23:14;98845.28;;;18.05;100.00
51099;BME280;37146;48.210;16.234;2022-07-05T03:25:39;98851.03;;;18.12;100.00
51099;BME280;37146;48.210;16.234;2022-07-05T03:28:04;98861.97;;;18.11;100.00
51099;BME280;37146;48.210;16.234;2022-07-05T03:30:30;98862.19;;;18.19;100.00
51099;BME280;37146;48.210;16.234;2022-07-05T03:32:55;98867.63;;;18.19;100.00
51099;BME280;37146;48.210;16.234;2022-07-05T03:35:20;98861.50;;;18.27;100.00
51099;BME280;37146;48.210;16.234;2022-07-05T03:37:45;98874.53;;;18.33;100.00
51099;BME280;37146;48.210;16.234;2022-07-05T03:40:11;98869.84;;;18.35;100.00
51099;BME280;37146;48.210;16.234;2022-07-05T03:42:36;98862.72;;;18.34;100.00
51099;BME280;37146;48.210;16.234;2022-07-05T03:45:02;98873.16;;;18.38;100.00
51099;BME280;37146;48.210;16.234;2022-07-05T03:47:28;98863.91;;;18.41;100.00
51099;BME280;37146;48.210;16.234;2022-07-05T03:49:53;98867.75;;;18.38;100.00
51099;BME280;37146;48.210;16.234;2022-07-05T03:52:19;98867.06;;;18.46;100.00
51099;BME280;37146;48.210;16.234;2022-07-05T03:54:44;98867.06;;;18.46;100.00
51099;BME280;37146;48.210;16.234;2022-07-05T03:57:10;98864.94;;;18.50;100.00
51099;BME280;37146;48.210;16.234;2022-07-05T03:59:35;98866.13;;;18.57;100.00
51099;BME280;37146;48.210;16.234;2022-07-05T04:02:00;98867.13;;;18.56;100.00
51099;BME280;37146;48.210;16.234;2022-07-05T04:04:26;98874.97;;;18.59;100.00
51099;BME280;37146;48.210;16.234;2022-07-05T04:06:51;98870.56;;;18.58;100.00
51099;BME280;37146;48.210;16.234;2022-07-05T04:09:16;98866.72;;;18.61;100.00
51099;BME280;37146;48.210;16.234;2022-07-05T04:11:41;98869.56;;;18.59;100.00
51099;BME280;37146;48.210;16.234;2022-07-05T04:14:07;98860.88;;;18.65;100.00
51099;BME280;37146;48.210;16.234;2022-07-05T04:16:34;98854.47;;;18.66;100.00
51099;BME280;37146;48.210;16.234;2022-07-05T04:18:59;98861.94;;;18.74;100.00
51099;BME280;37146;48.210;16.234;2022-07-05T04:21:24;98866.78;;;18.70;100.00
51099;BME280;37146;48.210;16.234;2022-07-05T04:23:49;98858.38;;;18.74;100.00
51099;BME280;37146;48.210;16.234;2022-07-05T04:26:15;98863.34;;;18.68;100.00
51099;BME280;37146;48.210;16.234;2022-07-05T04:28:40;98870.22;;;18.73;100.00
51099;BME280;37146;48.210;16.234;2022-07-05T04:31:05;98868.50;;;18.72;100.00
51099;BME280;37146;48.210;16.234;2022-07-05T04:33:31;98872.03;;;18.72;100.00
51099;BME280;37146;48.210;16.234;2022-07-05T04:35:56;98882.63;;;18.75;100.00
51099;BME280;37146;48.210;16.234;2022-07-05T04:38:21;98876.22;;;18.76;100.00
51099;BME280;37146;48.210;16.234;2022-07-05T04:40:46;98885.31;;;18.75;100.00
51099;BME280;37146;48.210;16.234;2022-07-05T04:43:12;98888.19;;;18.74;100.00
51099;BME280;37146;48.210;16.234;2022-07-05T04:45:37;98889.28;;;18.71;100.00
51099;BME280;37146;48.210;16.234;2022-07-05T04:48:02;98887.16;;;18.75;100.00
51099;BME280;37146;48.210;16.234;2022-07-05T04:50:28;98899.59;;;18.77;100.00
51099;BME280;37146;48.210;16.234;2022-07-05T04:52:53;98888.75;;;18.77;100.00
51099;BME280;37146;48.210;16.234;2022-07-05T04:55:18;98897.75;;;18.78;100.00
51099;BME280;37146;48.210;16.234;2022-07-05T04:57:43;98897.47;;;18.81;100.00
51099;BME280;37146;48.210;16.234;2022-07-05T05:00:09;98909.31;;;18.80;100.00
51099;BME280;37146;48.210;16.234;2022-07-05T05:02:35;98901.91;;;18.82;100.00
51099;BME280;37146;48.210;16.234;2022-07-05T05:05:00;98909.03;;;18.83;100.00
51099;BME280;37146;48.210;16.234;2022-07-05T05:07:26;98912.75;;;18.82;100.00
51099;BME280;37146;48.210;16.234;2022-07-05T05:09:51;98920.63;;;18.85;100.00
51099;BME280;37146;48.210;16.234;2022-07-05T05:12:16;98916.88;;;18.86;100.00
51099;BME280;37146;48.210;16.234;2022-07-05T05:14:41;98918.50;;;18.89;100.00
51099;BME280;37146;48.210;16.234;2022-07-05T05:17:07;98920.63;;;18.85;100.00
51099;BME280;37146;48.210;16.234;2022-07-05T05:19:32;98927.03;;;18.84;100.00
51099;BME280;37146;48.210;16.234;2022-07-05T05:21:57;98927.03;;;18.84;100.00
51099;BME280;37146;48.210;16.234;2022-07-05T05:24:22;98934.16;;;18.85;100.00
51099;BME280;37146;48.210;16.234;2022-07-05T05:26:47;98926.16;;;18.83;100.00
51099;BME280;37146;48.210;16.234;2022-07-05T05:29:14;98929.72;;;18.84;100.00
51099;BME280;37146;48.210;16.234;2022-07-05T05:31:39;98920.72;;;18.83;100.00
51099;BME280;37146;48.210;16.234;2022-07-05T05:34:04;98931.88;;;18.90;100.00
51099;BME280;37146;48.210;16.234;2022-07-05T05:36:29;98921.91;;;18.91;100.00
51099;BME280;37146;48.210;16.234;2022-07-05T05:38:55;98928.59;;;18.87;100.00
51099;BME280;37146;48.210;16.234;2022-07-05T05:41:20;98920.00;;;18.81;100.00
51099;BME280;37146;48.210;16.234;2022-07-05T05:43:45;98925.31;;;18.83;100.00
51099;BME280;37146;48.210;16.234;2022-07-05T05:46:10;98932.44;;;18.84;100.00
51099;BME280;37146;48.210;16.234;2022-07-05T05:48:36;98927.88;;;18.84;100.00
51099;BME280;37146;48.210;16.234;2022-07-05T05:51:01;98920.47;;;18.87;100.00
51099;BME280;37146;48.210;16.234;2022-07-05T05:53:26;98929.31;;;18.89;100.00
51099;BME280;37146;48.210;16.234;2022-07-05T05:55:51;98928.75;;;18.85;100.00
51099;BME280;37146;48.210;16.234;2022-07-05T05:58:18;98931.16;;;18.88;100.00
51099;BME280;37146;48.210;16.234;2022-07-05T06:00:43;98926.47;;;18.90;100.00
51099;BME280;37146;48.210;16.234;2022-07-05T06:03:13;98931.88;;;18.90;100.00
51099;BME280;37146;48.210;16.234;2022-07-05T06:05:38;98931.38;;;18.96;100.00
51099;BME280;37146;48.210;16.234;2022-07-05T06:08:03;98931.88;;;18.90;100.00
51099;BME280;37146;48.210;16.234;2022-07-05T06:10:30;98933.09;;;18.97;100.00
51099;BME280;37146;48.210;16.234;2022-07-05T06:12:56;98928.66;;;18.96;100.00
51099;BME280;37146;48.210;16.234;2022-07-05T06:15:22;98934.22;;;18.95;100.00
51099;BME280;37146;48.210;16.234;2022-07-05T06:17:47;98924.25;;;18.95;100.00
51099;BME280;37146;48.210;16.234;2022-07-05T06:20:13;98929.13;;;19.02;100.00
51099;BME280;37146;48.210;16.234;2022-07-05T06:22:39;98933.69;;;19.01;100.00
51099;BME280;37146;48.210;16.234;2022-07-05T06:25:05;98936.84;;;19.06;100.00
51099;BME280;37146;48.210;16.234;2022-07-05T06:27:30;98932.00;;;19.10;100.00
51099;BME280;37146;48.210;16.234;2022-07-05T06:29:56;98938.75;;;19.15;100.00
51099;BME280;37146;48.210;16.234;2022-07-05T06:32:21;98938.75;;;19.15;100.00
51099;BME280;37146;48.210;16.234;2022-07-05T06:34:46;98936.19;;;19.14;100.00
51099;BME280;37146;48.210;16.234;2022-07-05T06:37:12;98939.16;;;19.11;100.00
51099;BME280;37146;48.210;16.234;2022-07-05T06:39:37;98941.34;;;19.17;100.00
51099;BME280;37146;48.210;16.234;2022-07-05T06:42:02;98943.22;;;19.26;100.00
51099;BME280;37146;48.210;16.234;2022-07-05T06:44:28;98946.34;;;19.22;100.00
51099;BME280;37146;48.210;16.234;2022-07-05T06:46:53;98945.19;;;19.24;100.00
51099;BME280;37146;48.210;16.234;2022-07-05T06:49:18;98945.19;;;19.24;100.00
51099;BME280;37146;48.210;16.234;2022-07-05T06:51:43;98954.06;;;19.26;100.00
51099;BME280;37146;48.210;16.234;2022-07-05T06:54:09;98942.91;;;19.20;100.00
51099;BME280;37146;48.210;16.234;2022-07-05T06:56:34;98943.81;;;19.30;100.00
51099;BME280;37146;48.210;16.234;2022-07-05T06:58:59;98941.75;;;19.22;100.00
51099;BME280;37146;48.210;16.234;2022-07-05T07:01:24;98940.91;;;19.22;100.00
51099;BME280;37146;48.210;16.234;2022-07-05T07:03:50;98941.53;;;19.35;100.00
51099;BME280;37146;48.210;16.234;2022-07-05T07:06:15;98943.13;;;19.38;100.00
51099;BME280;37146;48.210;16.234;2022-07-05T07:08:40;98941.25;;;19.28;100.00
51099;BME280;37146;48.210;16.234;2022-07-05T07:11:24;98941.94;;;19.30;100.00
51099;BME280;37146;48.210;16.234;2022-07-05T07:13:50;98950.97;;;19.41;100.00
51099;BME280;37146;48.210;16.234;2022-07-05T07:16:15;98949.28;;;19.50;100.00
51099;BME280;37146;48.210;16.234;2022-07-05T07:18:40;98939.00;;;19.53;100.00
51099;BME280;37146;48.210;16.234;2022-07-05T07:21:05;98945.53;;;19.41;100.00
51099;BME280;37146;48.210;16.234;2022-07-05T07:23:31;98941.28;;;19.48;100.00
51099;BME280;37146;48.210;16.234;2022-07-05T07:25:56;98939.31;;;19.50;100.00
51099;BME280;37146;48.210;16.234;2022-07-05T07:28:21;98941.56;;;19.45;100.00
51099;BME280;37146;48.210;16.234;2022-07-05T07:30:46;98940.72;;;19.44;100.00
51099;BME280;37146;48.210;16.234;2022-07-05T07:33:12;98942.13;;;19.49;100.00
51099;BME280;37146;48.210;16.234;2022-07-05T07:35:37;98944.44;;;19.53;100.00
51099;BME280;37146;48.210;16.234;2022-07-05T07:38:02;98945.16;;;19.55;100.00
51099;BME280;37146;48.210;16.234;2022-07-05T07:40:27;98950.31;;;19.68;100.00
51099;BME280;37146;48.210;16.234;2022-07-05T07:42:53;98944.25;;;19.86;100.00
51099;BME280;37146;48.210;16.234;2022-07-05T07:45:18;98945.81;;;19.88;100.00
51099;BME280;37146;48.210;16.234;2022-07-05T07:47:43;98955.94;;;19.76;100.00
51099;BME280;37146;48.210;16.234;2022-07-05T07:50:09;98958.03;;;19.63;100.00
51099;BME280;37146;48.210;16.234;2022-07-05T07:52:34;98947.34;;;19.61;100.00
51099;BME280;37146;48.210;16.234;2022-07-05T07:55:01;98950.34;;;19.78;100.00
51099;BME280;37146;48.210;16.234;2022-07-05T07:57:26;98944.66;;;19.81;100.00
51099;BME280;37146;48.210;16.234;2022-07-05T07:59:52;98954.97;;;19.87;100.00
51099;BME280;37146;48.210;16.234;2022-07-05T08:02:17;98957.50;;;19.79;100.00
51099;BME280;37146;48.210;16.234;2022-07-05T08:04:46;98959.34;;;19.69;100.00
51099;BME280;37146;48.210;16.234;2022-07-05T08:07:11;98957.34;;;19.71;100.00
51099;BME280;37146;48.210;16.234;2022-07-05T08:09:36;98968.50;;;19.77;100.00
51099;BME280;37146;48.210;16.234;2022-07-05T08:12:01;98967.63;;;19.77;100.00
51099;BME280;37146;48.210;16.234;2022-07-05T08:14:27;98968.63;;;19.76;100.00
51099;BME280;37146;48.210;16.234;2022-07-05T08:16:52;98972.44;;;19.63;100.00
51099;BME280;37146;48.210;16.234;2022-07-05T08:19:18;98973.63;;;19.71;100.00
51099;BME280;37146;48.210;16.234;2022-07-05T08:22:01;98973.00;;;19.57;100.00
51099;BME280;37146;48.210;16.234;2022-07-05T08:24:27;98968.56;;;19.56;100.00
51099;BME280;37146;48.210;16.234;2022-07-05T08:26:53;98966.25;;;19.42;100.00
51099;BME280;37146;48.210;16.234;2022-07-05T08:29:18;98972.00;;;19.18;100.00
51099;BME280;37146;48.210;16.234;2022-07-05T08:31:48;98977.09;;;19.11;100.00
51099;BME280;37146;48.210;16.234;2022-07-05T08:34:14;98979.47;;;19.25;100.00
51099;BME280;37146;48.210;16.234;2022-07-05T08:36:40;98979.28;;;19.17;100.00
51099;BME280;37146;48.210;16.234;2022-07-05T08:39:08;98989.03;;;19.29;100.00
51099;BME280;37146;48.210;16.234;2022-07-05T08:41:35;98988.66;;;19.34;100.00
51099;BME280;37146;48.210;16.234;2022-07-05T08:44:00;98988.03;;;19.30;100.00
51099;BME280;37146;48.210;16.234;2022-07-05T08:46:27;99001.16;;;19.25;100.00
51099;BME280;37146;48.210;16.234;2022-07-05T08:48:55;98997.72;;;19.23;100.00
51099;BME280;37146;48.210;16.234;2022-07-05T08:51:21;98989.16;;;19.28;100.00
51099;BME280;37146;48.210;16.234;2022-07-05T08:53:47;98994.28;;;19.21;100.00
51099;BME280;37146;48.210;16.234;2022-07-05T08:56:12;99006.00;;;19.22;100.00
51099;BME280;37146;48.210;16.234;2022-07-05T08:58:38;98995.72;;;19.25;100.00
51099;BME280;37146;48.210;16.234;2022-07-05T09:01:04;99001.97;;;19.16;100.00
51099;BME280;37146;48.210;16.234;2022-07-05T09:03:31;98997.13;;;19.20;100.00
51099;BME280;37146;48.210;16.234;2022-07-05T09:05:57;99003.63;;;19.07;100.00
51099;BME280;37146;48.210;16.234;2022-07-05T09:08:24;99000.84;;;18.97;100.00
51099;BME280;37146;48.210;16.234;2022-07-05T09:10:51;99001.97;;;19.16;100.00
51099;BME280;37146;48.210;16.234;2022-07-05T09:13:16;99004.47;;;19.08;100.00
51099;BME280;37146;48.210;16.234;2022-07-05T09:15:42;98988.75;;;19.02;100.00
51099;BME280;37146;48.210;16.234;2022-07-05T09:18:09;98993.22;;;18.91;100.00
51099;BME280;37146;48.210;16.234;2022-07-05T09:20:34;99007.88;;;19.00;100.00
51099;BME280;37146;48.210;16.234;2022-07-05T09:22:59;98993.59;;;18.98;100.00
51099;BME280;37146;48.210;16.234;2022-07-05T09:25:25;99002.78;;;19.07;100.00
51099;BME280;37146;48.210;16.234;2022-07-05T09:27:53;98997.78;;;19.12;100.00
51099;BME280;37146;48.210;16.234;2022-07-05T09:30:29;98999.84;;;18.98;100.00
51099;BME280;37146;48.210;16.234;2022-07-05T09:33:14;99007.88;;;19.00;100.00
51099;BME280;37146;48.210;16.234;2022-07-05T09:35:41;99001.34;;;18.91;100.00
51099;BME280;37146;48.210;16.234;2022-07-05T09:38:15;99006.25;;;18.97;100.00
51099;BME280;37146;48.210;16.234;2022-07-05T09:40:46;99011.16;;;19.04;100.00
51099;BME280;37146;48.210;16.234;2022-07-05T09:43:12;99007.81;;;19.21;100.00
51099;BME280;37146;48.210;16.234;2022-07-05T09:45:38;99011.81;;;19.17;100.00
51099;BME280;37146;48.210;16.234;2022-07-05T09:48:03;99011.69;;;19.19;100.00
51099;BME280;37146;48.210;16.234;2022-07-05T09:50:32;99013.53;;;19.18;100.00
51099;BME280;37146;48.210;16.234;2022-07-05T09:52:57;99015.84;;;19.23;100.00
51099;BME280;37146;48.210;16.234;2022-07-05T09:55:22;99015.19;;;19.09;100.00
51099;BME280;37146;48.210;16.234;2022-07-05T09:57:48;99014.97;;;18.80;100.00
51099;BME280;37146;48.210;16.234;2022-07-05T10:00:17;99012.75;;;18.85;100.00
51099;BME280;37146;48.210;16.234;2022-07-05T10:02:47;99010.22;;;18.72;100.00
51099;BME280;37146;48.210;16.234;2022-07-05T10:05:17;99010.69;;;18.77;100.00
51099;BME280;37146;48.210;16.234;2022-07-05T10:07:47;99020.84;;;18.64;100.00
51099;BME280;37146;48.210;16.234;2022-07-05T10:10:16;99023.22;;;18.57;100.00
51099;BME280;37146;48.210;16.234;2022-07-05T10:12:43;99023.81;;;18.61;100.00
51099;BME280;37146;48.210;16.234;2022-07-05T10:15:10;99022.63;;;18.53;100.00
51099;BME280;37146;48.210;16.234;2022-07-05T10:17:37;99028.09;;;18.42;100.00
51099;BME280;37146;48.210;16.234;2022-07-05T10:20:05;99024.25;;;18.45;100.00
51099;BME280;37146;48.210;16.234;2022-07-05T10:22:34;99026.50;;;18.39;100.00
51099;BME280;37146;48.210;16.234;2022-07-05T10:25:00;99030.25;;;18.27;100.00
51099;BME280;37146;48.210;16.234;2022-07-05T10:27:25;99030.88;;;18.19;100.00
51099;BME280;37146;48.210;16.234;2022-07-05T10:29:52;99024.25;;;18.12;100.00
51099;BME280;37146;48.210;16.234;2022-07-05T10:32:18;99029.25;;;18.28;100.00
51099;BME280;37146;48.210;16.234;2022-07-05T10:34:44;99026.66;;;18.27;100.00
51099;BME280;37146;48.210;16.234;2022-07-05T10:37:11;99034.13;;;18.34;100.00
51099;BME280;37146;48.210;16.234;2022-07-05T10:39:36;99031.34;;;18.24;100.00
51099;BME280;37146;48.210;16.234;2022-07-05T10:42:02;99038.22;;;18.29;100.00
51099;BME280;37146;48.210;16.234;2022-07-05T10:44:34;99037.84;;;18.33;100.00
51099;BME280;37146;48.210;16.234;2022-07-05T10:47:09;99039.06;;;18.41;100.00
51099;BME280;37146;48.210;16.234;2022-07-05T10:49:35;99039.06;;;18.41;100.00
51099;BME280;37146;48.210;16.234;2022-07-05T10:52:01;99043.34;;;18.43;100.00
51099;BME280;37146;48.210;16.234;2022-07-05T10:54:26;99034.59;;;18.51;100.00
51099;BME280;37146;48.210;16.234;2022-07-05T11:02:19;99042.41;;;18.33;100.00
51099;BME280;37146;48.210;16.234;2022-07-05T11:04:44;99044.13;;;18.34;100.00
51099;BME280;37146;48.210;16.234;2022-07-05T11:07:09;99044.34;;;18.42;100.00
51099;BME280;37146;48.210;16.234;2022-07-05T11:09:35;99041.53;;;18.32;100.00
51099;BME280;37146;48.210;16.234;2022-07-05T11:12:02;99047.31;;;18.28;100.00
51099;BME280;37146;48.210;16.234;2022-07-05T11:22:26;99040.66;;;18.64;100.00
51099;BME280;37146;48.210;16.234;2022-07-05T11:24:52;99042.13;;;18.68;100.00
51099;BME280;37146;48.210;16.234;2022-07-05T11:27:17;99038.56;;;18.68;100.00
51099;BME280;37146;48.210;16.234;2022-07-05T11:30:01;99042.38;;;18.65;100.00
51099;BME280;37146;48.210;16.234;2022-07-05T11:34:55;99039.31;;;18.59;100.00
51099;BME280;37146;48.210;16.234;2022-07-05T11:37:22;99033.66;;;18.62;100.00
51099;BME280;37146;48.210;16.234;2022-07-05T11:42:30;99038.72;;;18.55;100.00
51099;BME280;37146;48.210;16.234;2022-07-05T11:44:56;99036.31;;;18.52;100.00
51099;BME280;37146;48.210;16.234;2022-07-05T11:47:21;99030.09;;;18.61;100.00
51099;BME280;37146;48.210;16.234;2022-07-05T11:49:53;99037.25;;;18.62;100.00
51099;BME280;37146;48.210;16.234;2022-07-05T11:52:24;99046.41;;;18.71;100.00
51099;BME280;37146;48.210;16.234;2022-07-05T11:54:49;99037.91;;;18.76;100.00
51099;BME280;37146;48.210;16.234;2022-07-05T11:57:14;99027.53;;;18.81;100.00
51099;BME280;37146;48.210;16.234;2022-07-05T11:59:40;99022.50;;;18.76;100.00
51099;BME280;37146;48.210;16.234;2022-07-05T12:02:05;99016.16;;;18.66;100.00
51099;BME280;37146;48.210;16.234;2022-07-05T12:04:30;99021.69;;;18.64;100.00
51099;BME280;37146;48.210;16.234;2022-07-05T12:06:56;99023.94;;;18.59;100.00
51099;BME280;37146;48.210;16.234;2022-07-05T12:09:23;99021.84;;;18.63;100.00
51099;BME280;37146;48.210;16.234;2022-07-05T12:11:49;99008.50;;;18.71;100.00
51099;BME280;37146;48.210;16.234;2022-07-05T12:14:33;99014.00;;;18.81;100.00
51099;BME280;37146;48.210;16.234;2022-07-05T12:17:11;99010.72;;;18.87;100.00
51099;BME280;37146;48.210;16.234;2022-07-05T12:19:37;99020.31;;;18.91;100.00
51099;BME280;37146;48.210;16.234;2022-07-05T12:22:02;99022.06;;;18.92;100.00
51099;BME280;37146;48.210;16.234;2022-07-05T12:24:27;99027.09;;;18.97;100.00
51099;BME280;37146;48.210;16.234;2022-07-05T12:26:53;99026.28;;;18.85;100.00
51099;BME280;37146;48.210;16.234;2022-07-05T12:29:18;99030.75;;;18.75;100.00
51099;BME280;37146;48.210;16.234;2022-07-05T12:32:00;99029.75;;;18.76;100.00
51099;BME280;37146;48.210;16.234;2022-07-05T12:34:26;99026.41;;;18.62;100.00
51099;BME280;37146;48.210;16.234;2022-07-05T12:36:51;99026.91;;;18.56;100.00
51099;BME280;37146;48.210;16.234;2022-07-05T12:39:17;99027.50;;;18.60;100.00
51099;BME280;37146;48.210;16.234;2022-07-05T12:41:42;99019.66;;;18.78;100.00
51099;BME280;37146;48.210;16.234;2022-07-05T12:44:08;99018.81;;;18.98;100.00
51099;BME280;37146;48.210;16.234;2022-07-05T12:46:38;99015.13;;;19.21;100.00
51099;BME280;37146;48.210;16.234;2022-07-05T12:49:03;99010.53;;;19.52;100.00
51099;BME280;37146;48.210;16.234;2022-07-05T12:51:33;99014.44;;;20.10;100.00
51099;BME280;37146;48.210;16.234;2022-07-05T12:53:58;99014.03;;;20.64;100.00